sensor_id;sensor_type;location;lat;lon;timestamp;P1;durP1;ratioP1;P2;durP2;ratioP2
20415;SDS011;10367;52.202;5.996;2022-09-09T00:02:02;16.27;;;14.80;;
20415;SDS011;10367;52.202;5.996;2022-09-09T00:04:40;15.20;;;13.70;;
20415;SDS011;10367;52.202;5.996;2022-09-09T00:07:10;16.43;;;14.90;;
20415;SDS011;10367;52.202;5.996;2022-09-09T00:09:45;16.77;;;15.10;;
20415;SDS011;10367;52.202;5.996;2022-09-09T00:12:17;13.60;;;12.50;;
20415;SDS011;10367;52.202;5.996;2022-09-09T00:14:51;14.57;;;13.23;;
20415;SDS011;10367;52.202;5.996;2022-09-09T00:17:26;13.00;;;12.00;;
20415;SDS011;10367;52.202;5.996;2022-09-09T00:20:05;14.53;;;13.43;;
20415;SDS011;10367;52.202;5.996;2022-09-09T00:22:41;15.40;;;13.83;;
20415;SDS011;10367;52.202;5.996;2022-09-09T00:25:16;14.87;;;13.57;;
20415;SDS011;10367;52.202;5.996;2022-09-09T00:27:51;14.80;;;13.43;;
20415;SDS011;10367;52.202;5.996;2022-09-09T00:30:21;15.80;;;14.20;;
20415;SDS011;10367;52.202;5.996;2022-09-09T00:32:54;14.17;;;12.77;;
20415;SDS011;10367;52.202;5.996;2022-09-09T00:35:27;13.13;;;11.97;;
20415;SDS011;10367;52.202;5.996;2022-09-09T00:38:00;14.23;;;13.00;;
20415;SDS011;10367;52.202;5.996;2022-09-09T00:40:34;14.90;;;13.47;;
20415;SDS011;10367;52.202;5.996;2022-09-09T00:43:09;14.37;;;13.00;;
20415;SDS011;10367;52.202;5.996;2022-09-09T00:46:05;15.20;;;13.80;;
20415;SDS011;10367;52.202;5.996;2022-09-09T00:48:53;14.17;;;12.97;;
20415;SDS011;10367;52.202;5.996;2022-09-09T00:51:33;13.57;;;12.47;;
20415;SDS011;10367;52.202;5.996;2022-09-09T00:54:14;15.23;;;13.83;;
20415;SDS011;10367;52.202;5.996;2022-09-09T00:56:59;13.43;;;12.20;;
20415;SDS011;10367;52.202;5.996;2022-09-09T00:59:45;16.67;;;14.97;;
20415;SDS011;10367;52.202;5.996;2022-09-09T01:02:26;13.33;;;12.37;;
20415;SDS011;10367;52.202;5.996;2022-09-09T01:05:00;15.70;;;13.87;;
20415;SDS011;10367;52.202;5.996;2022-09-09T01:07:33;15.00;;;13.57;;
20415;SDS011;10367;52.202;5.996;2022-09-09T01:10:03;14.90;;;13.53;;
20415;SDS011;10367;52.202;5.996;2022-09-09T01:12:40;14.80;;;13.40;;
20415;SDS011;10367;52.202;5.996;2022-09-09T01:15:12;15.93;;;14.27;;
20415;SDS011;10367;52.202;5.996;2022-09-09T01:17:50;19.50;;;14.43;;
20415;SDS011;10367;52.202;5.996;2022-09-09T01:20:28;17.43;;;15.30;;
20415;SDS011;10367;52.202;5.996;2022-09-09T01:26:12;14.33;;;12.97;;
20415;SDS011;10367;52.202;5.996;2022-09-09T01:28:46;15.23;;;13.70;;
20415;SDS011;10367;52.202;5.996;2022-09-09T01:31:17;16.23;;;12.87;;
20415;SDS011;10367;52.202;5.996;2022-09-09T01:33:48;15.87;;;13.90;;
20415;SDS011;10367;52.202;5.996;2022-09-09T01:36:22;15.47;;;14.07;;
20415;SDS011;10367;52.202;5.996;2022-09-09T01:38:55;15.87;;;14.23;;
20415;SDS011;10367;52.202;5.996;2022-09-09T01:41:26;13.60;;;12.53;;
20415;SDS011;10367;52.202;5.996;2022-09-09T01:43:56;15.27;;;13.87;;
20415;SDS011;10367;52.202;5.996;2022-09-09T01:46:25;15.67;;;13.03;;
20415;SDS011;10367;52.202;5.996;2022-09-09T01:48:56;15.90;;;14.23;;
20415;SDS011;10367;52.202;5.996;2022-09-09T01:51:26;15.03;;;13.73;;
20415;SDS011;10367;52.202;5.996;2022-09-09T01:53:55;17.37;;;14.83;;
20415;SDS011;10367;52.202;5.996;2022-09-09T01:56:32;16.13;;;13.27;;
20415;SDS011;10367;52.202;5.996;2022-09-09T01:59:16;17.23;;;14.80;;
20415;SDS011;10367;52.202;5.996;2022-09-09T02:01:57;14.47;;;12.97;;
20415;SDS011;10367;52.202;5.996;2022-09-09T02:04:37;16.03;;;14.27;;
20415;SDS011;10367;52.202;5.996;2022-09-09T02:07:11;16.57;;;14.20;;
20415;SDS011;10367;52.202;5.996;2022-09-09T02:09:59;15.13;;;13.03;;
20415;SDS011;10367;52.202;5.996;2022-09-09T02:12:34;15.63;;;14.10;;
20415;SDS011;10367;52.202;5.996;2022-09-09T02:15:07;16.07;;;14.37;;
20415;SDS011;10367;52.202;5.996;2022-09-09T02:17:44;14.10;;;12.63;;
20415;SDS011;10367;52.202;5.996;2022-09-09T02:20:16;15.33;;;13.33;;
20415;SDS011;10367;52.202;5.996;2022-09-09T02:22:47;14.60;;;13.20;;
20415;SDS011;10367;52.202;5.996;2022-09-09T02:25:19;15.07;;;13.57;;
20415;SDS011;10367;52.202;5.996;2022-09-09T02:27:52;13.67;;;12.57;;
20415;SDS011;10367;52.202;5.996;2022-09-09T02:30:21;15.83;;;13.83;;
20415;SDS011;10367;52.202;5.996;2022-09-09T02:32:50;14.40;;;12.97;;
20415;SDS011;10367;52.202;5.996;2022-09-09T02:35:23;13.20;;;11.50;;
20415;SDS011;10367;52.202;5.996;2022-09-09T02:37:54;13.07;;;11.97;;
20415;SDS011;10367;52.202;5.996;2022-09-09T02:40:27;14.40;;;12.90;;
20415;SDS011;10367;52.202;5.996;2022-09-09T02:42:58;14.90;;;13.33;;
20415;SDS011;10367;52.202;5.996;2022-09-09T02:45:30;16.40;;;13.73;;
20415;SDS011;10367;52.202;5.996;2022-09-09T02:48:07;13.93;;;12.63;;
20415;SDS011;10367;52.202;5.996;2022-09-09T02:50:43;15.27;;;13.73;;
20415;SDS011;10367;52.202;5.996;2022-09-09T02:53:20;13.20;;;12.10;;
20415;SDS011;10367;52.202;5.996;2022-09-09T02:55:53;18.50;;;13.10;;
20415;SDS011;10367;52.202;5.996;2022-09-09T02:58:27;13.53;;;12.33;;
20415;SDS011;10367;52.202;5.996;2022-09-09T03:00:56;14.83;;;12.97;;
20415;SDS011;10367;52.202;5.996;2022-09-09T03:03:28;14.17;;;12.77;;
20415;SDS011;10367;52.202;5.996;2022-09-09T03:05:57;14.00;;;12.70;;
20415;SDS011;10367;52.202;5.996;2022-09-09T03:08:26;12.50;;;11.40;;
20415;SDS011;10367;52.202;5.996;2022-09-09T03:10:55;13.27;;;11.97;;
20415;SDS011;10367;52.202;5.996;2022-09-09T03:13:29;13.93;;;12.50;;
20415;SDS011;10367;52.202;5.996;2022-09-09T03:15:58;13.63;;;12.23;;
20415;SDS011;10367;52.202;5.996;2022-09-09T03:18:27;14.93;;;13.10;;
20415;SDS011;10367;52.202;5.996;2022-09-09T03:20:56;14.07;;;12.57;;
20415;SDS011;10367;52.202;5.996;2022-09-09T03:23:26;16.90;;;12.93;;
20415;SDS011;10367;52.202;5.996;2022-09-09T03:25:56;17.77;;;13.37;;
20415;SDS011;10367;52.202;5.996;2022-09-09T03:28:25;13.27;;;12.07;;
20415;SDS011;10367;52.202;5.996;2022-09-09T03:31:00;15.67;;;13.47;;
20415;SDS011;10367;52.202;5.996;2022-09-09T03:33:29;14.00;;;12.37;;
20415;SDS011;10367;52.202;5.996;2022-09-09T03:35:58;17.37;;;14.10;;
20415;SDS011;10367;52.202;5.996;2022-09-09T03:38:27;14.17;;;12.67;;
20415;SDS011;10367;52.202;5.996;2022-09-09T03:40:56;16.87;;;13.07;;
20415;SDS011;10367;52.202;5.996;2022-09-09T03:43:26;13.97;;;12.60;;
20415;SDS011;10367;52.202;5.996;2022-09-09T03:45:55;14.27;;;12.80;;
20415;SDS011;10367;52.202;5.996;2022-09-09T03:48:26;12.70;;;11.53;;
20415;SDS011;10367;52.202;5.996;2022-09-09T03:50:55;13.20;;;12.00;;
20415;SDS011;10367;52.202;5.996;2022-09-09T03:53:27;18.20;;;13.40;;
20415;SDS011;10367;52.202;5.996;2022-09-09T03:55:57;14.37;;;12.50;;
20415;SDS011;10367;52.202;5.996;2022-09-09T03:58:26;12.77;;;11.67;;
20415;SDS011;10367;52.202;5.996;2022-09-09T04:00:56;14.70;;;12.87;;
20415;SDS011;10367;52.202;5.996;2022-09-09T04:03:27;16.20;;;13.33;;
20415;SDS011;10367;52.202;5.996;2022-09-09T04:05:57;16.70;;;13.17;;
20415;SDS011;10367;52.202;5.996;2022-09-09T04:08:29;16.73;;;12.93;;
20415;SDS011;10367;52.202;5.996;2022-09-09T04:10:59;15.23;;;13.70;;
20415;SDS011;10367;52.202;5.996;2022-09-09T04:13:35;13.90;;;12.17;;
20415;SDS011;10367;52.202;5.996;2022-09-09T04:16:05;14.37;;;13.03;;
20415;SDS011;10367;52.202;5.996;2022-09-09T04:18:36;14.57;;;12.47;;
20415;SDS011;10367;52.202;5.996;2022-09-09T04:21:05;15.43;;;13.83;;
20415;SDS011;10367;52.202;5.996;2022-09-09T04:23:35;14.33;;;13.03;;
20415;SDS011;10367;52.202;5.996;2022-09-09T04:26:04;18.27;;;14.30;;
20415;SDS011;10367;52.202;5.996;2022-09-09T04:28:33;14.70;;;13.10;;
20415;SDS011;10367;52.202;5.996;2022-09-09T04:31:04;16.13;;;13.57;;
20415;SDS011;10367;52.202;5.996;2022-09-09T04:33:34;16.63;;;13.13;;
20415;SDS011;10367;52.202;5.996;2022-09-09T04:36:07;20.70;;;14.53;;
20415;SDS011;10367;52.202;5.996;2022-09-09T04:38:36;17.37;;;13.03;;
20415;SDS011;10367;52.202;5.996;2022-09-09T04:41:05;15.90;;;13.90;;
20415;SDS011;10367;52.202;5.996;2022-09-09T04:43:34;14.27;;;12.97;;
20415;SDS011;10367;52.202;5.996;2022-09-09T04:46:04;16.47;;;12.93;;
20415;SDS011;10367;52.202;5.996;2022-09-09T04:48:33;20.50;;;14.50;;
20415;SDS011;10367;52.202;5.996;2022-09-09T04:51:03;15.57;;;13.87;;
20415;SDS011;10367;52.202;5.996;2022-09-09T04:53:34;17.37;;;13.83;;
20415;SDS011;10367;52.202;5.996;2022-09-09T04:56:04;19.57;;;14.87;;
20415;SDS011;10367;52.202;5.996;2022-09-09T04:58:35;18.90;;;14.33;;
20415;SDS011;10367;52.202;5.996;2022-09-09T05:01:05;15.13;;;12.90;;
20415;SDS011;10367;52.202;5.996;2022-09-09T05:03:36;18.03;;;14.77;;
20415;SDS011;10367;52.202;5.996;2022-09-09T05:06:05;15.97;;;14.07;;
20415;SDS011;10367;52.202;5.996;2022-09-09T05:08:38;18.50;;;14.27;;
20415;SDS011;10367;52.202;5.996;2022-09-09T05:11:13;17.97;;;13.40;;
20415;SDS011;10367;52.202;5.996;2022-09-09T05:13:45;16.17;;;13.97;;
20415;SDS011;10367;52.202;5.996;2022-09-09T05:16:14;18.93;;;13.63;;
20415;SDS011;10367;52.202;5.996;2022-09-09T05:18:43;21.13;;;14.10;;
20415;SDS011;10367;52.202;5.996;2022-09-09T05:21:13;17.00;;;14.60;;
20415;SDS011;10367;52.202;5.996;2022-09-09T05:23:44;23.23;;;14.67;;
20415;SDS011;10367;52.202;5.996;2022-09-09T05:26:19;13.40;;;12.20;;
20415;SDS011;10367;52.202;5.996;2022-09-09T05:28:48;15.93;;;14.17;;
20415;SDS011;10367;52.202;5.996;2022-09-09T05:31:18;14.83;;;13.07;;
20415;SDS011;10367;52.202;5.996;2022-09-09T05:33:47;14.67;;;13.27;;
20415;SDS011;10367;52.202;5.996;2022-09-09T05:36:17;16.13;;;14.43;;
20415;SDS011;10367;52.202;5.996;2022-09-09T05:38:49;14.67;;;13.37;;
20415;SDS011;10367;52.202;5.996;2022-09-09T05:41:20;18.60;;;14.13;;
20415;SDS011;10367;52.202;5.996;2022-09-09T05:43:50;15.27;;;13.10;;
20415;SDS011;10367;52.202;5.996;2022-09-09T05:46:19;15.43;;;13.70;;
20415;SDS011;10367;52.202;5.996;2022-09-09T05:48:49;14.97;;;13.57;;
20415;SDS011;10367;52.202;5.996;2022-09-09T05:51:20;19.10;;;14.83;;
20415;SDS011;10367;52.202;5.996;2022-09-09T05:53:52;14.67;;;13.10;;
20415;SDS011;10367;52.202;5.996;2022-09-09T05:56:22;15.50;;;13.90;;
20415;SDS011;10367;52.202;5.996;2022-09-09T05:58:52;15.00;;;13.50;;
20415;SDS011;10367;52.202;5.996;2022-09-09T06:01:22;16.57;;;14.00;;
20415;SDS011;10367;52.202;5.996;2022-09-09T06:03:53;15.77;;;13.20;;
20415;SDS011;10367;52.202;5.996;2022-09-09T06:06:23;17.20;;;13.73;;
20415;SDS011;10367;52.202;5.996;2022-09-09T06:08:55;17.23;;;14.07;;
20415;SDS011;10367;52.202;5.996;2022-09-09T06:11:26;16.47;;;12.67;;
20415;SDS011;10367;52.202;5.996;2022-09-09T06:13:57;19.17;;;14.27;;
20415;SDS011;10367;52.202;5.996;2022-09-09T06:16:27;14.13;;;12.73;;
20415;SDS011;10367;52.202;5.996;2022-09-09T06:18:56;15.63;;;13.60;;
20415;SDS011;10367;52.202;5.996;2022-09-09T06:21:26;16.07;;;14.10;;
20415;SDS011;10367;52.202;5.996;2022-09-09T06:23:58;14.60;;;13.23;;
20415;SDS011;10367;52.202;5.996;2022-09-09T06:26:27;15.80;;;13.77;;
20415;SDS011;10367;52.202;5.996;2022-09-09T06:28:58;19.13;;;15.90;;
20415;SDS011;10367;52.202;5.996;2022-09-09T06:31:29;14.27;;;12.93;;
20415;SDS011;10367;52.202;5.996;2022-09-09T06:34:01;15.87;;;14.17;;
20415;SDS011;10367;52.202;5.996;2022-09-09T06:36:33;16.10;;;13.73;;
20415;SDS011;10367;52.202;5.996;2022-09-09T06:39:05;24.10;;;16.43;;
20415;SDS011;10367;52.202;5.996;2022-09-09T06:41:40;19.80;;;13.77;;
20415;SDS011;10367;52.202;5.996;2022-09-09T06:44:10;18.70;;;14.90;;
20415;SDS011;10367;52.202;5.996;2022-09-09T06:46:39;16.53;;;14.27;;
20415;SDS011;10367;52.202;5.996;2022-09-09T06:49:08;18.17;;;16.03;;
20415;SDS011;10367;52.202;5.996;2022-09-09T06:51:37;16.87;;;14.93;;
20415;SDS011;10367;52.202;5.996;2022-09-09T06:54:11;21.03;;;14.03;;
20415;SDS011;10367;52.202;5.996;2022-09-09T06:56:41;16.67;;;13.40;;
20415;SDS011;10367;52.202;5.996;2022-09-09T06:59:12;17.60;;;15.23;;
20415;SDS011;10367;52.202;5.996;2022-09-09T07:01:41;16.50;;;14.83;;
20415;SDS011;10367;52.202;5.996;2022-09-09T07:04:10;15.63;;;14.10;;
20415;SDS011;10367;52.202;5.996;2022-09-09T07:06:41;15.03;;;13.73;;
20415;SDS011;10367;52.202;5.996;2022-09-09T07:09:13;17.37;;;15.17;;
20415;SDS011;10367;52.202;5.996;2022-09-09T07:11:43;16.77;;;14.37;;
20415;SDS011;10367;52.202;5.996;2022-09-09T07:14:13;17.47;;;15.60;;
20415;SDS011;10367;52.202;5.996;2022-09-09T07:16:42;16.23;;;14.63;;
20415;SDS011;10367;52.202;5.996;2022-09-09T07:19:12;15.87;;;14.27;;
20415;SDS011;10367;52.202;5.996;2022-09-09T07:21:42;15.77;;;14.27;;
20415;SDS011;10367;52.202;5.996;2022-09-09T07:24:13;19.83;;;13.73;;
20415;SDS011;10367;52.202;5.996;2022-09-09T07:26:42;16.53;;;14.80;;
20415;SDS011;10367;52.202;5.996;2022-09-09T07:29:12;19.30;;;16.07;;
20415;SDS011;10367;52.202;5.996;2022-09-09T07:31:46;16.63;;;14.73;;
20415;SDS011;10367;52.202;5.996;2022-09-09T07:34:15;16.20;;;14.70;;
20415;SDS011;10367;52.202;5.996;2022-09-09T07:36:45;16.73;;;15.13;;
20415;SDS011;10367;52.202;5.996;2022-09-09T07:39:15;15.47;;;14.17;;
20415;SDS011;10367;52.202;5.996;2022-09-09T07:41:45;17.00;;;15.03;;
20415;SDS011;10367;52.202;5.996;2022-09-09T07:44:15;17.90;;;16.10;;
20415;SDS011;10367;52.202;5.996;2022-09-09T07:46:45;18.50;;;16.30;;
20415;SDS011;10367;52.202;5.996;2022-09-09T07:49:14;18.87;;;16.90;;
20415;SDS011;10367;52.202;5.996;2022-09-09T07:51:52;18.23;;;16.50;;
20415;SDS011;10367;52.202;5.996;2022-09-09T07:54:22;16.17;;;14.80;;
20415;SDS011;10367;52.202;5.996;2022-09-09T07:56:51;16.70;;;15.30;;
20415;SDS011;10367;52.202;5.996;2022-09-09T07:59:20;16.97;;;15.30;;
20415;SDS011;10367;52.202;5.996;2022-09-09T08:01:49;21.90;;;15.60;;
20415;SDS011;10367;52.202;5.996;2022-09-09T08:04:22;16.97;;;15.53;;
20415;SDS011;10367;52.202;5.996;2022-09-09T08:06:52;16.00;;;14.73;;
20415;SDS011;10367;52.202;5.996;2022-09-09T08:09:24;21.23;;;15.90;;
20415;SDS011;10367;52.202;5.996;2022-09-09T08:11:56;18.00;;;16.30;;
20415;SDS011;10367;52.202;5.996;2022-09-09T08:14:25;17.10;;;15.57;;
20415;SDS011;10367;52.202;5.996;2022-09-09T08:16:54;17.57;;;15.77;;
20415;SDS011;10367;52.202;5.996;2022-09-09T08:19:24;18.10;;;16.23;;
20415;SDS011;10367;52.202;5.996;2022-09-09T08:21:56;18.00;;;16.33;;
20415;SDS011;10367;52.202;5.996;2022-09-09T08:24:26;16.87;;;15.30;;
20415;SDS011;10367;52.202;5.996;2022-09-09T08:26:55;17.23;;;15.77;;
20415;SDS011;10367;52.202;5.996;2022-09-09T08:29:24;17.60;;;16.00;;
20415;SDS011;10367;52.202;5.996;2022-09-09T08:31:53;17.70;;;16.07;;
20415;SDS011;10367;52.202;5.996;2022-09-09T08:34:24;16.77;;;15.17;;
20415;SDS011;10367;52.202;5.996;2022-09-09T08:36:54;18.53;;;16.77;;
20415;SDS011;10367;52.202;5.996;2022-09-09T08:39:23;17.60;;;16.07;;
20415;SDS011;10367;52.202;5.996;2022-09-09T08:42:09;20.40;;;17.73;;
20415;SDS011;10367;52.202;5.996;2022-09-09T08:44:53;17.33;;;15.63;;
20415;SDS011;10367;52.202;5.996;2022-09-09T08:47:33;18.23;;;16.60;;
20415;SDS011;10367;52.202;5.996;2022-09-09T08:50:16;17.17;;;15.57;;
20415;SDS011;10367;52.202;5.996;2022-09-09T08:52:53;18.57;;;16.37;;
20415;SDS011;10367;52.202;5.996;2022-09-09T08:55:31;16.87;;;15.33;;
20415;SDS011;10367;52.202;5.996;2022-09-09T08:58:09;18.50;;;15.73;;
20415;SDS011;10367;52.202;5.996;2022-09-09T09:00:47;18.67;;;15.63;;
20415;SDS011;10367;52.202;5.996;2022-09-09T09:03:28;18.13;;;16.40;;
20415;SDS011;10367;52.202;5.996;2022-09-09T09:06:04;19.80;;;18.00;;
20415;SDS011;10367;52.202;5.996;2022-09-09T09:08:43;22.07;;;17.47;;
20415;SDS011;10367;52.202;5.996;2022-09-09T09:11:16;17.73;;;15.90;;
20415;SDS011;10367;52.202;5.996;2022-09-09T09:13:47;17.97;;;16.50;;
20415;SDS011;10367;52.202;5.996;2022-09-09T09:16:23;18.57;;;16.87;;
20415;SDS011;10367;52.202;5.996;2022-09-09T09:18:59;19.77;;;17.83;;
20415;SDS011;10367;52.202;5.996;2022-09-09T09:21:31;17.30;;;15.77;;
20415;SDS011;10367;52.202;5.996;2022-09-09T09:24:04;18.73;;;16.83;;
20415;SDS011;10367;52.202;5.996;2022-09-09T09:26:39;18.63;;;16.70;;
20415;SDS011;10367;52.202;5.996;2022-09-09T09:29:17;17.57;;;16.03;;
20415;SDS011;10367;52.202;5.996;2022-09-09T09:31:50;17.70;;;16.07;;
20415;SDS011;10367;52.202;5.996;2022-09-09T09:34:22;18.33;;;16.53;;
20415;SDS011;10367;52.202;5.996;2022-09-09T09:36:52;17.73;;;16.13;;
20415;SDS011;10367;52.202;5.996;2022-09-09T09:39:24;18.80;;;17.07;;
20415;SDS011;10367;52.202;5.996;2022-09-09T09:42:16;20.87;;;17.47;;
20415;SDS011;10367;52.202;5.996;2022-09-09T09:44:50;19.23;;;16.77;;
20415;SDS011;10367;52.202;5.996;2022-09-09T09:47:20;17.70;;;15.87;;
20415;SDS011;10367;52.202;5.996;2022-09-09T09:49:51;19.73;;;17.83;;
20415;SDS011;10367;52.202;5.996;2022-09-09T09:52:22;18.07;;;16.53;;
20415;SDS011;10367;52.202;5.996;2022-09-09T09:54:52;18.50;;;16.67;;
20415;SDS011;10367;52.202;5.996;2022-09-09T09:57:23;17.50;;;16.07;;
20415;SDS011;10367;52.202;5.996;2022-09-09T10:00:04;18.67;;;16.97;;
20415;SDS011;10367;52.202;5.996;2022-09-09T10:02:42;20.40;;;18.13;;
20415;SDS011;10367;52.202;5.996;2022-09-09T10:05:13;20.53;;;17.87;;
20415;SDS011;10367;52.202;5.996;2022-09-09T10:07:59;18.23;;;16.63;;
20415;SDS011;10367;52.202;5.996;2022-09-09T10:10:39;19.47;;;17.60;;
20415;SDS011;10367;52.202;5.996;2022-09-09T10:13:18;17.93;;;16.23;;
20415;SDS011;10367;52.202;5.996;2022-09-09T10:15:56;16.53;;;15.27;;
20415;SDS011;10367;52.202;5.996;2022-09-09T10:18:39;18.23;;;16.57;;
20415;SDS011;10367;52.202;5.996;2022-09-09T10:21:36;17.77;;;16.20;;
20415;SDS011;10367;52.202;5.996;2022-09-09T10:24:25;16.97;;;15.53;;
20415;SDS011;10367;52.202;5.996;2022-09-09T10:27:05;20.80;;;18.07;;
20415;SDS011;10367;52.202;5.996;2022-09-09T10:29:47;18.27;;;16.50;;
20415;SDS011;10367;52.202;5.996;2022-09-09T10:32:42;20.37;;;18.33;;
20415;SDS011;10367;52.202;5.996;2022-09-09T10:35:27;19.43;;;17.50;;
20415;SDS011;10367;52.202;5.996;2022-09-09T10:38:13;18.97;;;17.13;;
20415;SDS011;10367;52.202;5.996;2022-09-09T10:40:47;23.63;;;17.90;;
20415;SDS011;10367;52.202;5.996;2022-09-09T10:43:36;18.10;;;16.80;;
20415;SDS011;10367;52.202;5.996;2022-09-09T10:46:15;18.90;;;17.00;;
20415;SDS011;10367;52.202;5.996;2022-09-09T10:49:03;19.00;;;17.27;;
20415;SDS011;10367;52.202;5.996;2022-09-09T10:51:50;17.33;;;15.97;;
20415;SDS011;10367;52.202;5.996;2022-09-09T10:54:29;17.50;;;16.10;;
20415;SDS011;10367;52.202;5.996;2022-09-09T10:57:24;22.10;;;17.70;;
20415;SDS011;10367;52.202;5.996;2022-09-09T10:59:57;17.10;;;15.53;;
20415;SDS011;10367;52.202;5.996;2022-09-09T11:02:31;18.17;;;16.77;;
20415;SDS011;10367;52.202;5.996;2022-09-09T11:05:03;18.57;;;16.80;;
20415;SDS011;10367;52.202;5.996;2022-09-09T11:07:39;17.17;;;15.87;;
20415;SDS011;10367;52.202;5.996;2022-09-09T11:10:16;19.37;;;17.30;;
20415;SDS011;10367;52.202;5.996;2022-09-09T11:12:53;17.53;;;16.23;;
20415;SDS011;10367;52.202;5.996;2022-09-09T11:15:35;17.30;;;16.03;;
20415;SDS011;10367;52.202;5.996;2022-09-09T11:18:11;18.63;;;16.97;;
20415;SDS011;10367;52.202;5.996;2022-09-09T11:20:46;21.00;;;17.27;;
20415;SDS011;10367;52.202;5.996;2022-09-09T11:23:18;17.13;;;15.53;;
20415;SDS011;10367;52.202;5.996;2022-09-09T11:25:52;17.77;;;16.37;;
20415;SDS011;10367;52.202;5.996;2022-09-09T11:28:28;17.97;;;16.20;;
20415;SDS011;10367;52.202;5.996;2022-09-09T11:31:13;19.07;;;17.37;;
20415;SDS011;10367;52.202;5.996;2022-09-09T11:34:02;18.23;;;16.50;;
20415;SDS011;10367;52.202;5.996;2022-09-09T11:36:56;19.33;;;17.57;;
20415;SDS011;10367;52.202;5.996;2022-09-09T11:42:30;17.27;;;15.67;;
20415;SDS011;10367;52.202;5.996;2022-09-09T11:45:08;18.73;;;16.93;;
20415;SDS011;10367;52.202;5.996;2022-09-09T11:47:39;18.33;;;16.93;;
20415;SDS011;10367;52.202;5.996;2022-09-09T11:50:32;17.77;;;16.33;;
20415;SDS011;10367;52.202;5.996;2022-09-09T11:53:14;19.87;;;17.90;;
20415;SDS011;10367;52.202;5.996;2022-09-09T11:58:36;19.20;;;17.27;;
20415;SDS011;10367;52.202;5.996;2022-09-09T12:01:25;20.37;;;18.60;;
20415;SDS011;10367;52.202;5.996;2022-09-09T12:04:02;18.97;;;17.37;;
20415;SDS011;10367;52.202;5.996;2022-09-09T12:06:49;19.30;;;17.73;;
20415;SDS011;10367;52.202;5.996;2022-09-09T12:09:25;17.97;;;16.57;;
20415;SDS011;10367;52.202;5.996;2022-09-09T12:12:05;21.03;;;19.10;;
20415;SDS011;10367;52.202;5.996;2022-09-09T12:15:00;19.00;;;17.37;;
20415;SDS011;10367;52.202;5.996;2022-09-09T12:17:45;17.90;;;16.50;;
20415;SDS011;10367;52.202;5.996;2022-09-09T12:20:15;19.43;;;17.77;;
20415;SDS011;10367;52.202;5.996;2022-09-09T12:25:48;18.33;;;16.93;;
20415;SDS011;10367;52.202;5.996;2022-09-09T12:28:43;17.13;;;15.90;;
20415;SDS011;10367;52.202;5.996;2022-09-09T12:31:20;18.77;;;17.00;;
20415;SDS011;10367;52.202;5.996;2022-09-09T12:33:52;17.73;;;16.40;;
20415;SDS011;10367;52.202;5.996;2022-09-09T12:36:23;16.30;;;15.10;;
20415;SDS011;10367;52.202;5.996;2022-09-09T12:38:58;17.43;;;16.20;;
20415;SDS011;10367;52.202;5.996;2022-09-09T12:41:38;18.23;;;16.50;;
20415;SDS011;10367;52.202;5.996;2022-09-09T12:44:08;19.23;;;17.53;;
20415;SDS011;10367;52.202;5.996;2022-09-09T12:46:39;18.43;;;16.80;;
20415;SDS011;10367;52.202;5.996;2022-09-09T12:49:20;18.60;;;16.93;;
20415;SDS011;10367;52.202;5.996;2022-09-09T12:51:54;16.77;;;15.43;;
20415;SDS011;10367;52.202;5.996;2022-09-09T12:54:25;17.57;;;16.10;;
20415;SDS011;10367;52.202;5.996;2022-09-09T12:56:56;17.10;;;15.87;;
20415;SDS011;10367;52.202;5.996;2022-09-09T12:59:26;16.87;;;15.67;;
20415;SDS011;10367;52.202;5.996;2022-09-09T13:02:10;19.53;;;17.63;;
20415;SDS011;10367;52.202;5.996;2022-09-09T13:04:45;17.73;;;16.33;;
20415;SDS011;10367;52.202;5.996;2022-09-09T13:07:17;19.03;;;17.37;;
20415;SDS011;10367;52.202;5.996;2022-09-09T13:09:47;17.97;;;16.43;;
20415;SDS011;10367;52.202;5.996;2022-09-09T13:12:19;17.73;;;16.43;;
20415;SDS011;10367;52.202;5.996;2022-09-09T13:14:50;18.47;;;17.27;;
20415;SDS011;10367;52.202;5.996;2022-09-09T13:17:22;17.17;;;15.87;;
20415;SDS011;10367;52.202;5.996;2022-09-09T13:19:52;17.73;;;16.33;;
20415;SDS011;10367;52.202;5.996;2022-09-09T13:22:29;19.10;;;17.63;;
20415;SDS011;10367;52.202;5.996;2022-09-09T13:25:02;18.53;;;17.13;;
20415;SDS011;10367;52.202;5.996;2022-09-09T13:27:35;19.53;;;17.87;;
20415;SDS011;10367;52.202;5.996;2022-09-09T13:30:22;18.87;;;17.40;;
20415;SDS011;10367;52.202;5.996;2022-09-09T13:33:03;18.00;;;16.60;;
20415;SDS011;10367;52.202;5.996;2022-09-09T13:35:50;18.33;;;16.93;;
20415;SDS011;10367;52.202;5.996;2022-09-09T13:38:22;17.87;;;16.57;;
20415;SDS011;10367;52.202;5.996;2022-09-09T13:40:54;18.10;;;16.87;;
20415;SDS011;10367;52.202;5.996;2022-09-09T13:43:27;17.73;;;16.37;;
20415;SDS011;10367;52.202;5.996;2022-09-09T13:45:58;17.53;;;16.13;;
20415;SDS011;10367;52.202;5.996;2022-09-09T13:48:28;17.63;;;16.40;;
20415;SDS011;10367;52.202;5.996;2022-09-09T13:50:59;17.23;;;16.00;;
20415;SDS011;10367;52.202;5.996;2022-09-09T13:53:30;18.27;;;17.00;;
20415;SDS011;10367;52.202;5.996;2022-09-09T13:55:59;17.40;;;16.27;;
20415;SDS011;10367;52.202;5.996;2022-09-09T13:58:29;17.87;;;16.43;;
20415;SDS011;10367;52.202;5.996;2022-09-09T14:00:58;18.90;;;17.40;;
20415;SDS011;10367;52.202;5.996;2022-09-09T14:03:27;17.40;;;16.20;;
20415;SDS011;10367;52.202;5.996;2022-09-09T14:05:56;16.77;;;15.77;;
20415;SDS011;10367;52.202;5.996;2022-09-09T14:08:25;17.03;;;16.03;;
20415;SDS011;10367;52.202;5.996;2022-09-09T14:10:55;17.97;;;16.53;;
20415;SDS011;10367;52.202;5.996;2022-09-09T14:13:26;17.13;;;16.03;;
20415;SDS011;10367;52.202;5.996;2022-09-09T14:15:56;18.57;;;17.13;;
20415;SDS011;10367;52.202;5.996;2022-09-09T14:18:25;20.47;;;18.70;;
20415;SDS011;10367;52.202;5.996;2022-09-09T14:20:53;17.53;;;16.17;;
20415;SDS011;10367;52.202;5.996;2022-09-09T14:23:24;18.77;;;17.20;;
20415;SDS011;10367;52.202;5.996;2022-09-09T14:25:53;16.63;;;15.43;;
20415;SDS011;10367;52.202;5.996;2022-09-09T14:28:22;18.23;;;16.77;;
20415;SDS011;10367;52.202;5.996;2022-09-09T14:31:12;18.20;;;16.87;;
20415;SDS011;10367;52.202;5.996;2022-09-09T14:33:41;19.17;;;17.63;;
20415;SDS011;10367;52.202;5.996;2022-09-09T14:36:10;18.60;;;17.07;;
20415;SDS011;10367;52.202;5.996;2022-09-09T14:38:39;18.40;;;17.03;;
20415;SDS011;10367;52.202;5.996;2022-09-09T14:41:08;19.83;;;18.10;;
20415;SDS011;10367;52.202;5.996;2022-09-09T14:43:38;18.03;;;16.63;;
20415;SDS011;10367;52.202;5.996;2022-09-09T14:46:07;20.00;;;18.43;;
20415;SDS011;10367;52.202;5.996;2022-09-09T14:48:39;19.07;;;17.63;;
20415;SDS011;10367;52.202;5.996;2022-09-09T14:51:08;19.83;;;18.17;;
20415;SDS011;10367;52.202;5.996;2022-09-09T14:53:39;18.10;;;16.90;;
20415;SDS011;10367;52.202;5.996;2022-09-09T14:56:09;20.63;;;18.80;;
20415;SDS011;10367;52.202;5.996;2022-09-09T14:58:39;19.37;;;17.87;;
20415;SDS011;10367;52.202;5.996;2022-09-09T15:01:08;20.53;;;18.63;;
20415;SDS011;10367;52.202;5.996;2022-09-09T15:03:40;18.33;;;16.97;;
20415;SDS011;10367;52.202;5.996;2022-09-09T15:06:10;21.00;;;19.00;;
20415;SDS011;10367;52.202;5.996;2022-09-09T15:08:40;19.47;;;17.80;;
20415;SDS011;10367;52.202;5.996;2022-09-09T15:11:11;19.07;;;17.67;;